Time;durP1;ratioP1;P1;durP2;ratioP2;P2;SDS_P1;SDS_P2;PMS_P1;PMS_P2;Temp;Humidity;BMP_temperature;BMP_pressure;BME280_temperature;BME280_humidity;BME280_pressure;Samples;Min_cycle;Max_cycle;Signal;HPM_P1;HPM_P2
2023/11/01 04:16:45;;;;;;;3.05;0.75;;;13.00;99.90;;;;;;4049732;29;20200;-95
2023/11/01 04:19:22;;;;;;;11.68;1.20;;;13.00;99.90;;;;;;4075032;29;20227;-95
2023/11/01 04:21:53;;;;;;;4.15;0.65;;;13.00;99.90;;;;;;4083277;29;20184;-96
2023/11/01 04:25:17;;;;;;;;;;;;;;;;;;;;;
2023/11/01 04:31:10;;;;;;;;;;;;;;;;;;;;;
2023/11/01 04:33:39;;;;;;;3.85;0.52;;;13.00;99.90;;;;;;4439072;23;20244;-93
2023/11/01 04:35:48;;;;;;;2.78;0.63;;;13.00;99.90;;;;;;4109548;28;20719;-95
2023/11/01 04:46:49;;;;;;;7.07;1.60;;;13.10;99.90;;;;;;4387775;23;20266;-94
2023/11/01 04:50:26;;;;;;;2.65;1.15;;;13.10;99.90;;;;;;4109481;29;20290;-94
2023/11/01 05:25:42;;;;;;;4.20;0.30;;;13.40;99.90;;;;;;4485164;23;20271;-94
2023/11/01 05:35:36;;;;;;;;;;;;;;;;;;;;;
2023/11/01 05:41:29;;;;;;;2.67;0.65;;;13.60;99.90;;;;;;4078523;29;20191;-95
2023/11/01 05:57:09;;;;;;;;;;;;;;;;;;;;;
2023/11/01 08:48:23;;;;;;;1.17;0.20;;;15.30;99.90;;;;;;4109437;28;20210;-96
2023/11/01 08:55:22;;;;;;;1.58;0.73;;;15.30;99.90;;;;;;4366278;23;20225;-96
2023/11/01 08:57:28;;;;;;;3.88;0.57;;;15.20;99.90;;;;;;4125861;28;20243;-94
2023/11/01 08:59:39;;;;;;;5.10;0.60;;;15.20;99.90;;;;;;4106840;29;20746;-94
2023/11/01 09:01:55;;;;;;;1.73;0.40;;;15.20;99.90;;;;;;4129853;28;20657;-94
2023/11/01 09:04:46;;;;;;;2.58;0.77;;;15.20;99.90;;;;;;4106282;28;20171;-94
2023/11/01 09:06:53;;;;;;;4.22;0.57;;;15.10;99.90;;;;;;4063960;29;20196;-94
2023/11/01 09:12:26;;;;;;;5.65;0.75;;;15.10;99.90;;;;;;4077182;29;20199;-95
2023/11/01 09:14:52;;;;;;;1.30;0.30;;;15.10;99.90;;;;;;4081298;28;20597;-95
2023/11/01 09:17:05;;;;;;;5.65;0.73;;;15.10;99.90;;;;;;4127621;28;20222;-94
2023/11/01 09:20:14;;;;;;;1.95;0.30;;;15.30;99.90;;;;;;4080625;29;20203;-94
2023/11/01 09:23:36;;;;;;;3.70;0.95;;;15.10;99.90;;;;;;4117836;28;20193;-94
2023/11/01 09:25:38;;;;;;;3.40;1.15;;;15.00;99.90;;;;;;4032552;29;20190;-95
2023/11/01 09:27:43;;;;;;;3.00;0.30;;;15.00;99.90;;;;;;4076842;29;20189;-94
2023/11/01 09:36:16;;;;;;;2.28;0.30;;;15.10;99.90;;;;;;4019752;29;20285;-94
2023/11/01 09:42:19;;;;;;;7.25;1.02;;;15.10;99.90;;;;;;3971826;29;20184;-94
2023/11/01 09:45:42;;;;;;;6.97;1.20;;;15.00;99.90;;;;;;3958277;30;20989;-96
2023/11/01 09:50:16;;;;;;;0.68;0.17;;;15.20;99.90;;;;;;4347052;23;20225;-94
2023/11/01 09:53:02;;;;;;;19.15;0.80;;;15.20;99.90;;;;;;4130356;28;20193;-95
2023/11/01 09:55:19;;;;;;;2.20;0.80;;;15.00;99.90;;;;;;4063487;29;20200;-93
2023/11/01 09:58:06;;;;;;;0.40;0.20;;;15.00;99.90;;;;;;4110583;29;20210;-94
2023/11/01 10:00:18;;;;;;;0.98;0.30;;;15.10;99.90;;;;;;4092874;28;20707;-95
2023/11/01 10:02:41;;;;;;;1.27;0.55;;;15.20;99.90;;;;;;4075005;29;20192;-95
2023/11/01 10:07:59;;;;;;;1.52;0.85;;;15.30;99.90;;;;;;4111075;29;20186;-94
2023/11/01 10:19:24;;;;;;;1.63;0.38;;;16.10;99.90;;;;;;4022244;29;20225;-94
2023/11/01 10:21:39;;;;;;;2.15;0.47;;;15.70;99.90;;;;;;4026495;29;20179;-95
2023/11/01 10:27:25;;;;;;;1.02;0.30;;;15.40;99.90;;;;;;4002513;29;20207;-93
2023/11/01 10:29:38;;;;;;;;;;;;;;;;;;;;;
2023/11/01 10:38:05;;;;;;;3.53;0.75;;;15.00;99.90;;;;;;4221431;23;20233;-94
2023/11/01 10:40:18;;;;;;;2.28;0.32;;;15.20;99.90;;;;;;4393645;23;20234;-94
2023/11/01 10:42:59;;;;;;;4.60;0.40;;;15.30;99.90;;;;;;4094043;29;20184;-94
2023/11/01 10:45:35;;;;;;;1.58;0.57;;;15.20;99.90;;;;;;4106711;28;20183;-94
2023/11/01 10:47:39;;;;;;;1.92;0.30;;;15.60;99.90;;;;;;4089318;29;20180;-94
2023/11/01 10:49:50;;;;;;;4.18;0.65;;;15.80;99.90;;;;;;4093660;29;20223;-93
2023/11/01 10:52:02;;;;;;;0.65;0.32;;;15.60;99.90;;;;;;4120712;28;20204;-93
2023/11/01 10:54:33;;;;;;;0.40;0.32;;;15.40;99.90;;;;;;4108461;28;20187;-95
2023/11/01 10:57:13;;;;;;;2.30;0.52;;;15.30;99.90;;;;;;4112765;23;20246;-94
2023/11/01 10:59:33;;;;;;;0.70;0.30;;;15.30;99.90;;;;;;4044700;29;20221;-93
2023/11/01 11:05:10;;;;;;;3.97;0.20;;;15.40;99.90;;;;;;4061158;29;20274;-95
2023/11/01 11:07:52;;;;;;;2.17;0.70;;;15.20;99.90;;;;;;4047701;29;20193;-95
2023/11/01 11:10:25;;;;;;;7.72;1.40;;;15.20;99.90;;;;;;4044611;29;20220;-94
2023/11/01 11:12:45;;;;;;;;;;;;;;;;;;;;;
2023/11/01 11:14:52;;;;;;;0.30;0.30;;;15.20;99.90;;;;;;4030613;29;20243;-94
2023/11/01 11:19:52;;;;;;;1.38;0.47;;;15.40;99.90;;;;;;4168505;23;20252;-94
2023/11/01 11:21:59;;;;;;;2.05;0.30;;;15.60;99.90;;;;;;4114297;28;20193;-95
2023/11/01 11:24:30;;;;;;;1.27;0.38;;;15.70;99.90;;;;;;4114237;28;20171;-95
2023/11/01 11:26:46;;;;;;;0.75;0.30;;;15.90;99.90;;;;;;4113450;28;20183;-94
2023/11/01 11:28:53;;;;;;;3.25;0.52;;;16.00;99.90;;;;;;4115721;28;20189;-95
2023/11/01 11:31:25;;;;;;;4.18;0.30;;;16.10;99.90;;;;;;4131655;28;20225;-94
2023/11/01 11:33:25;;;;;;;2.72;0.38;;;15.90;99.90;;;;;;4115453;29;20187;-93
2023/11/01 11:35:34;;;;;;;10.05;0.47;;;15.60;99.90;;;;;;4131932;28;20728;-95
2023/11/01 11:38:30;;;;;;;;;;;;;;;;;;;;;
2023/11/01 11:41:19;;;;;;;0.28;0.17;;;15.40;99.90;;;;;;4106170;28;20213;-94
2023/11/01 11:44:26;;;;;;;1.05;0.25;;;15.60;99.90;;;;;;4104382;23;20227;-86
2023/11/01 11:46:34;;;;;;;0.82;0.40;;;15.60;99.90;;;;;;4068982;29;20188;-87
2023/11/01 11:48:41;;;;;;;3.47;0.50;;;15.30;99.90;;;;;;4036933;29;20282;-86
2023/11/01 11:50:43;;;;;;;0.50;0.20;;;15.10;99.90;;;;;;4039753;29;20209;-86
2023/11/01 11:52:45;;;;;;;1.25;0.50;;;15.10;99.90;;;;;;4109398;28;20174;-89
2023/11/01 11:54:45;;;;;;;2.50;0.60;;;15.20;99.90;;;;;;4099110;29;20191;-86
2023/11/01 11:56:47;;;;;;;2.53;0.40;;;15.20;99.90;;;;;;4116477;28;20662;-86
2023/11/01 11:58:49;;;;;;;2.78;0.60;;;15.30;99.90;;;;;;4100334;29;20210;-88
2023/11/01 12:00:51;;;;;;;3.08;0.47;;;15.40;99.90;;;;;;4100512;29;20270;-86
2023/11/01 12:02:51;;;;;;;2.72;0.40;;;15.50;99.90;;;;;;4099894;29;20227;-87
2023/11/01 12:04:52;;;;;;;3.08;0.50;;;15.50;99.90;;;;;;4100356;29;20175;-87
2023/11/01 12:06:54;;;;;;;0.20;0.20;;;15.50;99.90;;;;;;4100245;29;20210;-87
2023/11/01 12:08:54;;;;;;;0.82;0.30;;;15.50;99.90;;;;;;4100710;28;20211;-87
2023/11/01 12:10:56;;;;;;;0.85;0.40;;;15.40;99.90;;;;;;4133523;28;20178;-87
2023/11/01 12:12:57;;;;;;;2.60;0.43;;;15.00;99.90;;;;;;4100310;29;20282;-87
2023/11/01 12:15:02;;;;;;;4.13;0.28;;;14.80;99.90;;;;;;4100374;29;20242;-86
2023/11/01 12:17:02;;;;;;;1.05;0.40;;;14.80;99.90;;;;;;4099977;29;20234;-86
2023/11/01 12:19:14;;;;;;;1.00;0.40;;;14.60;99.90;;;;;;4116042;28;20205;-86
2023/11/01 12:21:14;;;;;;;1.90;0.20;;;14.50;99.90;;;;;;4100200;28;20282;-86
2023/11/01 12:23:15;;;;;;;1.92;0.57;;;14.30;99.90;;;;;;4115996;28;20556;-85
2023/11/01 12:25:23;;;;;;;1.08;0.10;;;14.40;99.90;;;;;;4100435;29;20689;-86
2023/11/01 12:27:30;;;;;;;1.30;0.40;;;14.50;99.90;;;;;;4100332;29;20186;-87
2023/11/01 12:29:32;;;;;;;0.98;0.30;;;14.60;99.90;;;;;;4099986;29;20245;-85
2023/11/01 12:31:33;;;;;;;1.10;0.43;;;14.70;99.90;;;;;;4116300;28;20185;-86
2023/11/01 12:33:34;;;;;;;0.43;0.30;;;14.90;99.90;;;;;;4116077;28;20185;-87
2023/11/01 12:35:44;;;;;;;1.98;0.32;;;14.80;99.90;;;;;;4099927;29;20222;-87
2023/11/01 12:37:45;;;;;;;2.33;0.50;;;14.60;99.90;;;;;;4115850;28;20224;-87
2023/11/01 12:40:12;;;;;;;1.58;0.30;;;14.60;99.90;;;;;;4099575;28;20273;-87
2023/11/01 12:42:27;;;;;;;1.73;0.47;;;14.70;99.90;;;;;;4100233;29;20281;-86
2023/11/01 12:44:28;;;;;;;0.68;0.15;;;14.70;99.90;;;;;;4100053;29;20191;-87
2023/11/01 12:46:29;;;;;;;1.50;0.22;;;14.70;99.90;;;;;;4115642;28;20170;-87
2023/11/01 12:48:30;;;;;;;2.63;0.75;;;14.60;99.90;;;;;;4099751;29;20310;-86
2023/11/01 12:50:36;;;;;;;1.17;0.63;;;14.50;99.90;;;;;;4115841;28;20178;-86
2023/11/01 12:52:37;;;;;;;5.57;0.65;;;14.50;99.90;;;;;;4115831;28;20210;-87
2023/11/01 12:54:41;;;;;;;5.05;0.88;;;14.50;99.90;;;;;;4099841;29;20234;-86
2023/11/01 12:56:42;;;;;;;3.30;0.60;;;14.30;99.90;;;;;;4099671;29;20183;-87
2023/11/01 12:58:43;;;;;;;2.83;0.32;;;14.20;99.90;;;;;;4089612;29;20668;-88
2023/11/01 13:00:43;;;;;;;0.50;0.20;;;14.30;99.90;;;;;;4105553;28;20186;-88
2023/11/01 13:02:45;;;;;;;0.98;0.28;;;14.20;99.90;;;;;;4125469;28;20173;-88
2023/11/01 13:04:46;;;;;;;3.20;0.40;;;14.10;99.90;;;;;;4095391;29;20222;-86
2023/11/01 13:06:47;;;;;;;4.63;0.63;;;14.00;99.90;;;;;;4116668;28;20182;-87
2023/11/01 13:08:47;;;;;;;0.95;0.32;;;14.00;99.90;;;;;;4116707;28;20206;-87
2023/11/01 13:10:48;;;;;;;1.88;0.70;;;14.10;99.90;;;;;;4100829;28;20190;-87
2023/11/01 13:12:49;;;;;;;3.17;0.75;;;14.00;99.90;;;;;;4100643;29;20183;-87
2023/11/01 13:14:50;;;;;;;0.50;0.40;;;13.90;99.90;;;;;;4100786;29;20187;-86
2023/11/01 13:16:51;;;;;;;0.68;0.38;;;14.00;99.90;;;;;;4116466;28;20679;-88
2023/11/01 13:18:52;;;;;;;2.60;0.40;;;14.00;99.90;;;;;;4116631;28;20206;-87
2023/11/01 13:20:52;;;;;;;0.80;0.35;;;13.90;99.90;;;;;;4104342;28;20549;-85
2023/11/01 13:22:53;;;;;;;2.17;0.73;;;13.90;99.90;;;;;;4109585;29;20179;-87
2023/11/01 13:24:54;;;;;;;0.30;0.13;;;14.00;99.90;;;;;;4100771;29;20187;-85
2023/11/01 13:26:54;;;;;;;3.30;0.47;;;14.00;99.90;;;;;;4116582;28;20237;-86
2023/11/01 13:28:55;;;;;;;3.95;0.90;;;13.90;99.90;;;;;;4133237;28;20201;-84
2023/11/01 13:30:56;;;;;;;6.50;1.08;;;13.90;99.90;;;;;;4100438;29;20182;-86
2023/11/01 13:32:56;;;;;;;0.65;0.20;;;13.90;99.90;;;;;;4100440;28;20191;-86
2023/11/01 13:34:57;;;;;;;3.03;0.25;;;14.00;99.90;;;;;;4100408;29;20186;-88
2023/11/01 13:36:59;;;;;;;0.17;0.15;;;13.90;99.90;;;;;;4116284;28;20220;-86
2023/11/01 13:39:00;;;;;;;4.03;0.35;;;13.90;99.90;;;;;;4116236;28;20224;-86
2023/11/01 13:41:01;;;;;;;3.17;0.70;;;13.90;99.90;;;;;;4100211;29;20644;-87
2023/11/01 13:43:02;;;;;;;0.15;0.15;;;13.90;99.90;;;;;;4100015;29;20198;-89
2023/11/01 13:45:03;;;;;;;0.20;0.20;;;13.90;99.90;;;;;;4116055;28;20182;-86
2023/11/01 13:47:04;;;;;;;1.30;0.57;;;14.00;99.90;;;;;;4100041;29;20222;-86
2023/11/01 13:49:05;;;;;;;1.10;0.38;;;14.10;99.90;;;;;;4116061;28;20214;-85
2023/11/01 13:51:06;;;;;;;1.40;0.20;;;14.00;99.90;;;;;;4099430;28;20199;-86
2023/11/01 13:53:06;;;;;;;0.77;0.30;;;14.00;99.90;;;;;;4115924;28;20706;-86
2023/11/01 13:55:09;;;;;;;1.55;0.17;;;14.00;99.90;;;;;;4099809;29;20187;-86
2023/11/01 13:57:09;;;;;;;0.43;0.20;;;13.90;99.90;;;;;;4100077;29;20262;-85
2023/11/01 13:59:10;;;;;;;0.40;0.30;;;14.00;99.90;;;;;;4115916;28;20202;-88
2023/11/01 14:01:11;;;;;;;2.17;0.20;;;14.00;99.90;;;;;;4099943;29;20218;-85
2023/11/01 14:03:12;;;;;;;3.05;0.20;;;13.90;99.90;;;;;;4099459;28;20702;-86
2023/11/01 14:05:13;;;;;;;1.23;0.45;;;13.90;99.90;;;;;;4115630;28;20182;-86
2023/11/01 14:07:14;;;;;;;0.60;0.22;;;13.90;99.90;;;;;;4099980;29;20171;-86
2023/11/01 14:09:16;;;;;;;4.97;0.30;;;13.90;99.90;;;;;;4099365;29;20222;-87
2023/11/01 14:11:17;;;;;;;0.32;0.22;;;13.70;99.90;;;;;;4099661;29;20187;-87
2023/11/01 14:13:18;;;;;;;1.30;0.30;;;13.70;99.90;;;;;;4099954;29;20201;-87
2023/11/01 14:15:19;;;;;;;0.17;0.17;;;13.80;99.90;;;;;;4099980;29;20241;-87
2023/11/01 14:17:19;;;;;;;1.85;0.50;;;13.80;99.90;;;;;;4099673;29;20234;-87
2023/11/01 14:19:20;;;;;;;0.73;0.30;;;13.80;99.90;;;;;;4099591;29;20207;-86
2023/11/01 14:21:21;;;;;;;2.08;0.30;;;13.80;99.90;;;;;;4099844;29;20612;-86
2023/11/01 14:23:22;;;;;;;0.32;0.17;;;13.90;99.90;;;;;;4099751;29;20182;-87
2023/11/01 14:25:23;;;;;;;13.30;0.77;;;13.90;99.90;;;;;;4099579;29;20568;-86
2023/11/01 14:27:25;;;;;;;2.10;0.28;;;13.80;99.90;;;;;;4115803;28;20178;-86
2023/11/01 14:29:26;;;;;;;0.35;0.25;;;13.80;99.90;;;;;;4115640;28;20210;-87
2023/11/01 14:31:28;;;;;;;1.30;0.52;;;13.80;99.90;;;;;;4099678;28;20179;-87
2023/11/01 14:33:28;;;;;;;1.60;0.25;;;13.60;99.90;;;;;;4099753;28;20186;-84
2023/11/01 14:35:29;;;;;;;0.13;0.10;;;13.70;99.90;;;;;;4099656;29;20262;-88
2023/11/01 14:37:30;;;;;;;0.77;0.32;;;13.70;99.90;;;;;;4099699;29;20226;-86
2023/11/01 14:39:30;;;;;;;0.50;0.30;;;13.80;99.90;;;;;;4115598;28;20194;-88
2023/11/01 14:41:31;;;;;;;0.20;0.10;;;13.80;99.90;;;;;;4099530;29;20189;-87
2023/11/01 14:43:32;;;;;;;0.52;0.22;;;13.80;99.90;;;;;;4099284;29;20281;-86
2023/11/01 14:45:33;;;;;;;1.08;0.55;;;13.90;99.90;;;;;;4099444;29;20197;-86
2023/11/01 14:47:37;;;;;;;0.88;0.22;;;13.90;99.90;;;;;;4115478;28;20178;-86
2023/11/01 14:49:37;;;;;;;0.28;0.28;;;13.70;99.90;;;;;;4099384;29;20198;-85
2023/11/01 14:51:41;;;;;;;1.02;0.15;;;13.60;99.90;;;;;;4099346;29;20190;-87
2023/11/01 14:53:42;;;;;;;0.45;0.00;;;13.40;99.90;;;;;;4099653;29;20190;-87
2023/11/01 14:55:43;;;;;;;4.60;0.35;;;13.30;99.90;;;;;;4115191;28;20182;-86
2023/11/01 14:57:44;;;;;;;1.50;0.55;;;13.40;99.90;;;;;;4099521;29;20309;-87
2023/11/01 14:59:45;;;;;;;1.65;0.30;;;13.40;99.90;;;;;;4099098;28;20195;-86
2023/11/01 15:01:50;;;;;;;0.95;0.10;;;13.60;99.90;;;;;;4099742;29;20183;-87
2023/11/01 15:03:51;;;;;;;0.30;0.00;;;13.50;99.90;;;;;;4101731;28;20269;-85
2023/11/01 15:05:52;;;;;;;3.17;0.68;;;13.60;99.90;;;;;;4102059;29;20194;-89
2023/11/01 15:07:53;;;;;;;0.20;0.20;;;13.40;99.90;;;;;;4102290;28;20178;-87
2023/11/01 15:09:54;;;;;;;0.22;0.10;;;13.30;99.90;;;;;;4102600;29;20783;-87
2023/11/01 15:11:55;;;;;;;0.73;0.10;;;13.30;99.90;;;;;;4102650;29;20179;-87
2023/11/01 15:13:56;;;;;;;4.35;0.28;;;13.30;99.90;;;;;;4102561;29;20189;-86
2023/11/01 15:15:56;;;;;;;0.85;0.22;;;13.10;99.90;;;;;;4118381;28;20182;-87
2023/11/01 15:17:57;;;;;;;0.65;0.20;;;13.30;99.90;;;;;;4118390;28;20345;-87
2023/11/01 15:19:58;;;;;;;0.43;0.10;;;13.20;99.90;;;;;;4118517;28;20292;-87
2023/11/01 15:21:59;;;;;;;1.75;0.30;;;13.20;99.90;;;;;;4115561;28;20196;-87
2023/11/01 15:23:59;;;;;;;1.08;0.20;;;13.10;99.90;;;;;;4109887;28;20224;-87
2023/11/01 15:26:00;;;;;;;3.08;0.20;;;13.20;99.90;;;;;;4109892;28;20323;-89
2023/11/01 15:28:01;;;;;;;0.10;0.00;;;13.20;99.90;;;;;;4105979;28;20673;-88
2023/11/01 15:30:02;;;;;;;0.25;0.10;;;13.20;99.90;;;;;;4110420;28;20235;-87
2023/11/01 15:32:04;;;;;;;1.65;0.40;;;13.20;99.90;;;;;;4092756;28;20186;-87
2023/11/01 15:34:05;;;;;;;2.17;0.35;;;13.30;99.90;;;;;;4116465;28;20209;-87
2023/11/01 15:36:08;;;;;;;0.22;0.15;;;13.30;99.90;;;;;;4096388;29;20686;-87
2023/11/01 15:38:09;;;;;;;2.83;0.22;;;13.30;99.90;;;;;;4104387;28;20218;-86
2023/11/01 15:40:10;;;;;;;0.28;0.15;;;13.30;99.90;;;;;;4086061;29;20559;-87
2023/11/01 15:42:10;;;;;;;0.40;0.10;;;13.20;99.90;;;;;;4086309;29;20274;-87
2023/11/01 15:44:11;;;;;;;0.43;0.30;;;13.30;99.90;;;;;;4085886;29;20191;-88
2023/11/01 15:46:12;;;;;;;0.90;0.13;;;13.20;99.90;;;;;;4102223;29;20270;-88
2023/11/01 15:48:13;;;;;;;0.40;0.10;;;13.20;99.90;;;;;;4086142;29;20200;-85
2023/11/01 15:50:13;;;;;;;0.52;0.10;;;13.30;99.90;;;;;;4101895;29;20596;-85
2023/11/01 15:52:14;;;;;;;0.80;0.30;;;13.20;99.90;;;;;;4102006;29;20182;-88
2023/11/01 15:54:15;;;;;;;0.15;0.10;;;13.20;99.90;;;;;;4086033;29;20557;-87
2023/11/01 15:56:15;;;;;;;1.02;0.30;;;13.20;99.90;;;;;;4086090;29;20199;-87
2023/11/01 15:58:16;;;;;;;0.20;0.15;;;13.10;99.90;;;;;;4101602;29;20229;-85
2023/11/01 16:00:17;;;;;;;3.17;0.50;;;12.90;99.90;;;;;;4085850;29;20612;-87
2023/11/01 16:02:18;;;;;;;0.70;0.15;;;12.90;99.90;;;;;;4101819;29;20241;-86
2023/11/01 16:04:19;;;;;;;0.50;0.10;;;12.90;99.90;;;;;;4101522;29;20179;-88
2023/11/01 16:06:19;;;;;;;1.13;0.20;;;12.80;99.90;;;;;;4101840;29;20273;-86
2023/11/01 16:08:20;;;;;;;3.35;0.98;;;12.90;99.90;;;;;;4101616;28;20201;-85
2023/11/01 16:10:21;;;;;;;0.40;0.25;;;12.80;99.90;;;;;;4127350;28;20264;-85
2023/11/01 16:12:21;;;;;;;2.05;0.32;;;12.70;99.90;;;;;;4117122;28;20706;-85
2023/11/01 16:14:24;;;;;;;0.47;0.30;;;12.70;99.90;;;;;;4116014;28;20190;-85
2023/11/01 16:16:25;;;;;;;1.75;0.43;;;12.70;99.90;;;;;;4116941;28;20190;-85
2023/11/01 16:18:26;;;;;;;0.80;0.20;;;12.70;99.90;;;;;;4115567;28;20628;-87
2023/11/01 16:20:27;;;;;;;2.35;0.43;;;12.80;99.90;;;;;;4085137;29;20570;-86
2023/11/01 16:22:27;;;;;;;0.08;0.08;;;12.80;99.90;;;;;;4116803;28;20558;-87
2023/11/01 16:24:28;;;;;;;2.08;0.13;;;12.70;99.90;;;;;;4085260;29;20180;-88
2023/11/01 16:26:29;;;;;;;0.63;0.20;;;12.70;99.90;;;;;;4100432;29;20651;-86
2023/11/01 16:28:30;;;;;;;0.82;0.20;;;12.70;99.90;;;;;;4100694;29;20186;-88
2023/11/01 16:30:31;;;;;;;2.13;0.63;;;12.70;99.90;;;;;;4116496;28;20186;-86
2023/11/01 16:32:32;;;;;;;4.88;0.73;;;12.70;99.90;;;;;;4100918;29;20209;-87
2023/11/01 16:34:33;;;;;;;4.57;0.73;;;12.70;99.90;;;;;;4116898;28;20182;-86
2023/11/01 16:36:34;;;;;;;0.38;0.20;;;12.70;99.90;;;;;;4100691;29;20183;-87
2023/11/01 16:38:34;;;;;;;10.10;0.98;;;12.80;99.90;;;;;;4115000;28;20284;-86
2023/11/01 16:40:35;;;;;;;2.03;0.38;;;12.80;99.90;;;;;;4101073;28;20270;-88
2023/11/01 16:42:36;;;;;;;0.70;0.30;;;12.90;99.90;;;;;;4100887;29;20555;-87
2023/11/01 16:44:37;;;;;;;1.10;0.20;;;12.90;99.90;;;;;;4101218;28;20191;-87
2023/11/01 16:46:39;;;;;;;1.92;0.28;;;12.90;99.90;;;;;;4101050;29;20183;-87
2023/11/01 16:48:40;;;;;;;2.85;0.40;;;13.00;99.90;;;;;;4100711;29;20237;-87
2023/11/01 16:50:40;;;;;;;2.30;0.77;;;13.00;99.90;;;;;;4100967;29;20222;-88
2023/11/01 16:52:42;;;;;;;1.45;0.40;;;13.00;99.90;;;;;;4101135;29;20213;-87
2023/11/01 16:54:42;;;;;;;0.35;0.30;;;12.90;99.90;;;;;;4101021;29;20288;-87
2023/11/01 16:56:43;;;;;;;0.60;0.20;;;12.90;99.90;;;;;;4101301;29;20183;-88
2023/11/01 16:58:44;;;;;;;1.80;0.47;;;13.00;99.90;;;;;;4101053;29;20620;-89
2023/11/01 17:00:45;;;;;;;2.45;0.35;;;13.00;99.90;;;;;;4101219;29;20183;-88
2023/11/01 17:02:46;;;;;;;0.77;0.32;;;12.90;99.90;;;;;;4101030;29;20183;-87
2023/11/01 17:04:47;;;;;;;1.15;0.40;;;12.90;99.90;;;;;;4101331;29;20179;-88
2023/11/01 17:06:47;;;;;;;1.17;0.40;;;12.90;99.90;;;;;;4116895;28;20248;-87
2023/11/01 17:08:48;;;;;;;0.75;0.45;;;12.90;99.90;;;;;;4101013;29;20195;-88
2023/11/01 17:10:49;;;;;;;1.65;0.50;;;12.90;99.90;;;;;;4117162;28;20265;-88
2023/11/01 17:12:50;;;;;;;7.30;0.90;;;12.90;99.90;;;;;;4101148;29;20171;-87
2023/11/01 17:14:54;;;;;;;1.00;0.45;;;12.90;99.90;;;;;;4101041;29;20198;-87
2023/11/01 17:16:55;;;;;;;1.42;0.30;;;12.70;99.90;;;;;;4100993;29;20279;-88
2023/11/01 17:18:56;;;;;;;0.55;0.10;;;12.60;99.90;;;;;;4100722;29;20213;-87
2023/11/01 17:20:56;;;;;;;0.32;0.20;;;12.60;99.90;;;;;;4100654;29;20183;-87
2023/11/01 17:23:01;;;;;;;2.60;0.63;;;12.60;99.90;;;;;;4100418;29;20191;-87
2023/11/01 17:25:24;;;;;;;5.38;1.45;;;12.50;99.90;;;;;;4100824;29;20682;-88
2023/11/01 17:27:25;;;;;;;0.68;0.30;;;12.60;99.90;;;;;;4099687;28;20241;-88
2023/11/01 17:29:33;;;;;;;2.22;1.25;;;12.50;99.90;;;;;;4100433;29;20683;-88
2023/11/01 17:31:34;;;;;;;4.28;1.27;;;12.50;99.90;;;;;;4100519;29;20193;-89
2023/11/01 17:33:36;;;;;;;2.13;0.82;;;12.50;99.90;;;;;;4100557;28;20186;-88
2023/11/01 17:35:37;;;;;;;0.88;0.45;;;12.40;99.90;;;;;;4100420;29;20273;-87
2023/11/01 17:37:38;;;;;;;2.88;0.73;;;12.40;99.90;;;;;;4133131;28;20748;-87
2023/11/01 17:39:40;;;;;;;1.45;0.45;;;12.40;99.90;;;;;;4116494;28;20286;-87
2023/11/01 17:41:51;;;;;;;1.98;0.82;;;12.40;99.90;;;;;;4099728;29;20179;-87
2023/11/01 17:43:53;;;;;;;5.00;1.58;;;12.40;99.90;;;;;;4100265;28;20241;-88
2023/11/01 17:45:54;;;;;;;0.85;0.52;;;12.40;99.90;;;;;;4115221;23;20227;-92
2023/11/01 17:47:55;;;;;;;2.15;0.80;;;12.40;99.90;;;;;;4085322;29;20550;-94
2023/11/01 17:49:57;;;;;;;1.33;0.50;;;12.40;99.90;;;;;;4101305;29;20201;-91
2023/11/01 17:51:58;;;;;;;6.97;0.20;;;12.40;99.90;;;;;;4086339;29;20179;-96
2023/11/01 17:54:02;;;;;;;1.90;0.80;;;12.30;99.90;;;;;;4103239;29;20245;-95
2023/11/01 17:56:07;;;;;;;0.85;0.32;;;12.30;99.90;;;;;;4087909;29;20242;-93
2023/11/01 17:58:09;;;;;;;1.58;0.50;;;12.20;99.90;;;;;;4101527;29;20230;-95
2023/11/01 18:00:10;;;;;;;1.73;0.60;;;12.20;99.90;;;;;;4101040;29;20202;-96
2023/11/01 18:02:58;;;;;;;1.23;0.20;;;12.30;99.90;;;;;;4086911;29;20251;-94
2023/11/01 18:05:00;;;;;;;0.17;0.17;;;12.20;99.90;;;;;;4067515;29;20676;-93
2023/11/01 18:07:00;;;;;;;0.63;0.20;;;12.10;99.90;;;;;;4085383;29;20175;-94
2023/11/01 18:09:02;;;;;;;0.20;0.10;;;12.00;99.90;;;;;;4101045;29;20213;-94
2023/11/01 18:11:07;;;;;;;0.60;0.20;;;12.00;99.90;;;;;;4084982;29;20179;-93
2023/11/01 18:13:30;;;;;;;0.88;0.40;;;11.90;99.90;;;;;;4085230;29;20235;-95
2023/11/01 18:15:33;;;;;;;0.08;0.00;;;11.80;99.90;;;;;;4085297;29;20187;-94
2023/11/01 18:17:35;;;;;;;0.70;0.13;;;11.60;99.90;;;;;;4085463;29;20288;-96
2023/11/01 18:19:39;;;;;;;0.25;0.25;;;11.60;99.90;;;;;;4101319;29;20202;-93
2023/11/01 18:21:40;;;;;;;1.65;0.30;;;11.60;99.90;;;;;;4085066;29;20196;-94
2023/11/01 18:23:56;;;;;;;2.13;0.30;;;11.50;99.90;;;;;;4101517;29;20254;-96
2023/11/01 18:26:10;;;;;;;0.38;0.13;;;11.60;99.90;;;;;;4085296;29;20175;-95
2023/11/01 18:28:10;;;;;;;0.88;0.40;;;11.50;99.90;;;;;;4085772;29;20185;-94
2023/11/01 18:30:17;;;;;;;0.30;0.17;;;11.50;99.90;;;;;;4085397;29;20234;-94
2023/11/01 18:32:18;;;;;;;0.47;0.30;;;11.50;99.90;;;;;;4084941;29;20203;-93
2023/11/01 18:34:20;;;;;;;1.35;0.13;;;11.50;99.90;;;;;;4094777;29;20183;-96
2023/11/01 18:36:22;;;;;;;0.17;0.10;;;11.40;99.90;;;;;;4086163;29;20180;-94
2023/11/01 18:38:45;;;;;;;14.52;0.63;;;11.30;99.90;;;;;;4088288;29;20223;-95
2023/11/01 18:40:46;;;;;;;0.55;0.25;;;11.40;99.90;;;;;;4088678;29;20186;-96
2023/11/01 18:42:54;;;;;;;0.35;0.10;;;11.40;99.90;;;;;;4105592;29;20182;-95
2023/11/01 18:44:55;;;;;;;0.52;0.10;;;11.20;99.90;;;;;;4089640;29;20187;-94
2023/11/01 18:46:57;;;;;;;0.73;0.10;;;11.10;99.90;;;;;;4104421;28;20611;-96
2023/11/01 18:48:57;;;;;;;0.20;0.20;;;11.10;99.90;;;;;;4088645;29;20195;-94
2023/11/01 18:50:58;;;;;;;0.35;0.10;;;11.10;99.90;;;;;;4104257;29;20302;-93
2023/11/01 18:53:04;;;;;;;0.30;0.10;;;11.10;99.90;;;;;;4088227;29;20624;-93
2023/11/01 18:55:07;;;;;;;0.43;0.10;;;11.10;99.90;;;;;;4088040;29;20270;-94
2023/11/01 18:57:35;;;;;;;0.68;0.52;;;11.10;99.90;;;;;;4087553;29;20302;-95
2023/11/01 18:59:36;;;;;;;1.30;0.43;;;11.00;99.90;;;;;;4103864;29;20260;-93
2023/11/01 19:01:40;;;;;;;0.28;0.17;;;11.00;99.90;;;;;;4087760;29;20175;-93
2023/11/01 19:03:44;;;;;;;0.20;0.20;;;11.00;99.90;;;;;;4103639;29;20205;-96
2023/11/01 19:05:45;;;;;;;3.65;0.55;;;10.90;99.90;;;;;;4104247;29;20171;-92
2023/11/01 19:07:47;;;;;;;1.10;0.55;;;11.00;99.90;;;;;;4088035;29;20191;-94
2023/11/01 19:09:51;;;;;;;0.85;0.30;;;11.10;99.90;;;;;;4088128;29;20208;-94
2023/11/01 19:11:51;;;;;;;1.02;0.10;;;11.10;99.90;;;;;;4103607;29;20678;-93
2023/11/01 19:13:54;;;;;;;2.40;0.70;;;11.10;99.90;;;;;;4104063;29;20183;-96
2023/11/01 19:16:06;;;;;;;0.75;0.10;;;11.20;99.90;;;;;;4088364;29;20235;-94
2023/11/01 19:18:14;;;;;;;0.50;0.25;;;11.20;99.90;;;;;;4104522;28;20218;-94
2023/11/01 19:20:15;;;;;;;1.13;0.50;;;11.20;99.90;;;;;;4090604;29;20194;-96
2023/11/01 19:22:16;;;;;;;1.65;0.40;;;11.30;99.90;;;;;;4104553;29;20183;-94
2023/11/01 19:24:17;;;;;;;0.30;0.20;;;11.30;99.90;;;;;;4103721;28;20235;-93
2023/11/01 19:26:22;;;;;;;0.47;0.28;;;11.40;99.90;;;;;;4087627;29;20183;-96
2023/11/01 19:28:23;;;;;;;7.30;0.95;;;11.40;99.90;;;;;;4087183;29;20207;-95
2023/11/01 19:30:24;;;;;;;0.47;0.17;;;11.40;99.90;;;;;;4103112;29;20269;-95
2023/11/01 19:32:25;;;;;;;0.05;0.00;;;11.60;99.90;;;;;;4087463;29;20236;-93
2023/11/01 19:34:26;;;;;;;0.80;0.40;;;11.60;99.90;;;;;;4119103;28;20174;-92
2023/11/01 19:36:28;;;;;;;0.17;0.10;;;11.50;99.90;;;;;;4102665;29;20186;-95
2023/11/01 19:38:29;;;;;;;0.45;0.20;;;11.40;99.90;;;;;;4103378;29;20514;-96
2023/11/01 19:40:30;;;;;;;3.45;0.47;;;11.50;99.90;;;;;;4087652;29;20183;-94
2023/11/01 19:42:34;;;;;;;0.45;0.35;;;11.50;99.90;;;;;;4103012;29;20231;-94
2023/11/01 19:44:38;;;;;;;0.68;0.15;;;11.50;99.90;;;;;;4103500;29;20645;-95
2023/11/01 19:46:40;;;;;;;6.13;0.22;;;11.50;99.90;;;;;;4086886;29;20203;-95
2023/11/01 19:48:41;;;;;;;4.57;0.28;;;11.40;99.90;;;;;;4086534;29;20211;-94
2023/11/01 19:50:51;;;;;;;1.80;0.20;;;11.40;99.90;;;;;;4118516;28;20174;-94
2023/11/01 19:52:53;;;;;;;5.55;0.40;;;11.40;99.90;;;;;;4087134;29;20198;-93
2023/11/01 19:54:54;;;;;;;1.73;0.28;;;11.40;99.90;;;;;;4086707;29;20184;-94
2023/11/01 19:56:54;;;;;;;1.50;0.40;;;11.40;99.90;;;;;;4086613;29;20198;-93
2023/11/01 19:58:55;;;;;;;0.77;0.30;;;11.20;99.90;;;;;;4102999;29;20835;-94
2023/11/01 20:00:56;;;;;;;1.10;0.20;;;11.30;99.90;;;;;;4087218;29;20180;-95
2023/11/01 20:02:57;;;;;;;1.27;0.90;;;11.30;99.90;;;;;;4118864;28;20210;-94
2023/11/01 20:05:00;;;;;;;0.98;0.38;;;11.10;99.90;;;;;;4087154;29;20183;-95
2023/11/01 20:07:02;;;;;;;2.45;0.70;;;11.20;99.90;;;;;;4087195;29;20651;-95
2023/11/01 20:09:02;;;;;;;1.65;0.20;;;11.20;99.90;;;;;;4087257;29;20247;-94
2023/11/01 20:11:04;;;;;;;0.10;0.10;;;11.20;99.90;;;;;;4118052;28;20178;-95
2023/11/01 20:13:04;;;;;;;0.17;0.15;;;11.30;99.90;;;;;;4102050;29;20187;-93